Погода Ескарсегана неделю

Кампече, Мексика

21 - 27 февраля
  • 21февраля
    Сегодня
    +16°
    +30°
    Ясно и безоблачно
    ВремяПогодаТемператураВлажностьДавлениеВетер, м/сВероятность осадков
    00:00Ясно и безоблачно+17°C91 %759 мм2.6 м/с2 %
    03:00Ясно и безоблачно+15°C89 %758 мм2.8 м/с2 %
    06:00Ясно и безоблачно+16°C79 %758 мм3.6 м/с2 %
    09:00Ясно и безоблачно+22°C67 %760 мм2.7 м/с2 %
    12:00Ясно и безоблачно+27°C44 %758 мм1.5 м/с2 %
    15:00Ясно и безоблачно+30°C37 %755 мм1.5 м/с2 %
    18:00Ясно и безоблачно+24°C50 %755 мм2.5 м/с2 %
    21:00Ясно и безоблачно+19°C62 %756 мм3.3 м/с2 %
  • 22февраля
    Четверг
    +16°
    +33°
    Ясно и безоблачно
    ВремяПогодаТемператураВлажностьДавлениеВетер, м/сВероятность осадков
    00:00Ясно и безоблачно+18°C56 %756 мм3.4 м/с2 %
    03:00Ясно и безоблачно+17°C70 %754 мм3.5 м/с2 %
    06:00Ясно и безоблачно+16°C76 %754 мм3.1 м/с2 %
    09:00Ясно и безоблачно+22°C61 %755 мм2.8 м/с2 %
    12:00Ясно и безоблачно+29°C40 %753 мм2.9 м/с2 %
    15:00Ясно и безоблачно+32°C33 %750 мм2.2 м/с2 %
    18:00Ясно и безоблачно+26°C49 %750 мм1.8 м/с2 %
    21:00Ясно и безоблачно+22°C52 %751 мм3.8 м/с2 %
  • 23февраля
    Пятница
    +16°
    +34°
    Ясно и безоблачно
    ВремяПогодаТемператураВлажностьДавлениеВетер, м/сВероятность осадков
    00:00Ясно и безоблачно+19°C70 %751 мм3.8 м/с2 %
    03:00Ясно и безоблачно+17°C76 %750 мм3.8 м/с2 %
    06:00Ясно и безоблачно+16°C83 %750 мм3.0 м/с2 %
    09:00Ясно и безоблачно+23°C65 %752 мм2.4 м/с2 %
    12:00Ясно и безоблачно+30°C39 %751 мм0.3 м/с2 %
    15:00Ясно и безоблачно+33°C33 %750 мм1.4 м/с2 %
    18:00Ясно и безоблачно+26°C44 %751 мм3.7 м/с2 %
    21:00Ясно и безоблачно+21°C73 %753 мм3.1 м/с2 %
  • 24февраля
    Суббота
    +15°
    +29°
    Небольшая облачность
    ВремяПогодаТемператураВлажностьДавлениеВетер, м/сВероятность осадков
    00:00Ясно и безоблачно+19°C93 %753 мм2.5 м/с2 %
    03:00Ясно и безоблачно+18°C98 %753 мм2.5 м/с2 %
    06:00Ясно и безоблачно+17°C97 %755 мм2.4 м/с2 %
    09:00Ясно и безоблачно+23°C72 %757 мм1.7 м/с6 %
    12:00Пасмурно, сплошная облачность+28°C50 %756 мм2.3 м/с19 %
    15:00Небольшая облачность+29°C53 %755 мм2.5 м/с3 %
    18:00Ясно и безоблачно+24°C63 %756 мм3.1 м/с2 %
    21:00Ясно и безоблачно+20°C88 %758 мм3.2 м/с2 %
Мы используем cookies
Соглашаюсь